Earls Colne, United Kingdom
Current Conditions -  °F | °C
As of 10:50 PM on Saturday 22 Nov 2014 (Local Time) from EGUW Reporting Station
Rain Showers Rain Showers  
Wind Chill: 12°   Ceiling: 100
Heat Index: 12°   Visibility: 0.46mi
Dew Point: 12°   Wind: 3mph
Humidity: 100%   Direction: 170°S
Pressure: 29.97"   Gusts: NA
Location:  51.93°N, 0.7°E
Report Text: EGUW 222250Z AUTO 17003KT 0750 -SHRA BKN001/// BKN011/// 12/12 Q1015
Loading
Personal Weather Stations






























Interactive Weather Map New forecast layout! Learn more

10-Day Weather Forecast

Advertisements
Track Severe Weather on mobile